sensor_id;sensor_type;location;lat;lon;timestamp;P1;durP1;ratioP1;P2;durP2;ratioP2
57441;SDS011;43284;47.042;15.498;2022-10-22T00:00:13;27.90;;;15.60;;
57441;SDS011;43284;47.042;15.498;2022-10-22T00:02:42;30.88;;;17.05;;
57441;SDS011;43284;47.042;15.498;2022-10-22T00:05:10;35.30;;;18.88;;
57441;SDS011;43284;47.042;15.498;2022-10-22T00:07:37;31.10;;;16.63;;
57441;SDS011;43284;47.042;15.498;2022-10-22T00:10:05;31.45;;;17.08;;
57441;SDS011;43284;47.042;15.498;2022-10-22T00:12:33;36.53;;;17.27;;
57441;SDS011;43284;47.042;15.498;2022-10-22T00:15:02;34.08;;;15.85;;
57441;SDS011;43284;47.042;15.498;2022-10-22T00:17:30;36.35;;;18.08;;
57441;SDS011;43284;47.042;15.498;2022-10-22T00:19:58;29.40;;;15.98;;
57441;SDS011;43284;47.042;15.498;2022-10-22T00:22:26;33.80;;;17.70;;
57441;SDS011;43284;47.042;15.498;2022-10-22T00:24:53;32.85;;;18.10;;
57441;SDS011;43284;47.042;15.498;2022-10-22T00:27:21;31.30;;;17.42;;
57441;SDS011;43284;47.042;15.498;2022-10-22T00:29:48;33.78;;;17.95;;
57441;SDS011;43284;47.042;15.498;2022-10-22T00:32:17;30.65;;;17.20;;
57441;SDS011;43284;47.042;15.498;2022-10-22T00:34:46;30.92;;;16.17;;
57441;SDS011;43284;47.042;15.498;2022-10-22T00:37:14;41.60;;;15.93;;
57441;SDS011;43284;47.042;15.498;2022-10-22T00:39:41;33.05;;;16.60;;
57441;SDS011;43284;47.042;15.498;2022-10-22T00:42:11;29.20;;;14.15;;
57441;SDS011;43284;47.042;15.498;2022-10-22T00:44:59;26.35;;;13.55;;
57441;SDS011;43284;47.042;15.498;2022-10-22T00:47:29;25.77;;;14.75;;
57441;SDS011;43284;47.042;15.498;2022-10-22T00:50:08;30.38;;;13.73;;
57441;SDS011;43284;47.042;15.498;2022-10-22T00:52:42;23.10;;;13.65;;
57441;SDS011;43284;47.042;15.498;2022-10-22T00:55:10;26.70;;;14.43;;
57441;SDS011;43284;47.042;15.498;2022-10-22T00:57:46;31.27;;;16.30;;
57441;SDS011;43284;47.042;15.498;2022-10-22T01:00:14;32.05;;;16.20;;
57441;SDS011;43284;47.042;15.498;2022-10-22T01:02:43;25.90;;;13.88;;
57441;SDS011;43284;47.042;15.498;2022-10-22T01:05:11;22.63;;;13.82;;
57441;SDS011;43284;47.042;15.498;2022-10-22T01:07:41;30.85;;;13.93;;
57441;SDS011;43284;47.042;15.498;2022-10-22T01:18:30;30.75;;;14.38;;
57441;SDS011;43284;47.042;15.498;2022-10-22T01:21:22;29.48;;;14.50;;
57441;SDS011;43284;47.042;15.498;2022-10-22T01:30:06;30.85;;;14.63;;
57441;SDS011;43284;47.042;15.498;2022-10-22T01:32:42;26.77;;;14.38;;
57441;SDS011;43284;47.042;15.498;2022-10-22T01:35:26;28.02;;;15.35;;
57441;SDS011;43284;47.042;15.498;2022-10-22T01:37:58;31.50;;;14.63;;
57441;SDS011;43284;47.042;15.498;2022-10-22T01:40:32;25.42;;;14.32;;
57441;SDS011;43284;47.042;15.498;2022-10-22T01:43:01;31.05;;;15.02;;
57441;SDS011;43284;47.042;15.498;2022-10-22T01:45:36;28.63;;;15.48;;
57441;SDS011;43284;47.042;15.498;2022-10-22T01:50:39;30.75;;;15.75;;
57441;SDS011;43284;47.042;15.498;2022-10-22T01:53:20;31.17;;;15.15;;
57441;SDS011;43284;47.042;15.498;2022-10-22T01:56:13;37.45;;;15.23;;
57441;SDS011;43284;47.042;15.498;2022-10-22T02:02:15;26.40;;;15.50;;
57441;SDS011;43284;47.042;15.498;2022-10-22T02:05:04;29.75;;;14.02;;
57441;SDS011;43284;47.042;15.498;2022-10-22T02:07:44;30.63;;;14.18;;
57441;SDS011;43284;47.042;15.498;2022-10-22T02:10:24;30.10;;;15.57;;
57441;SDS011;43284;47.042;15.498;2022-10-22T02:12:53;29.17;;;14.32;;
57441;SDS011;43284;47.042;15.498;2022-10-22T02:15:24;33.22;;;15.82;;
57441;SDS011;43284;47.042;15.498;2022-10-22T02:17:55;32.53;;;15.88;;
57441;SDS011;43284;47.042;15.498;2022-10-22T02:20:26;27.10;;;15.40;;
57441;SDS011;43284;47.042;15.498;2022-10-22T02:22:57;28.25;;;15.63;;
57441;SDS011;43284;47.042;15.498;2022-10-22T02:25:27;31.67;;;14.15;;
57441;SDS011;43284;47.042;15.498;2022-10-22T02:30:47;25.45;;;15.75;;
57441;SDS011;43284;47.042;15.498;2022-10-22T02:35:53;26.00;;;13.90;;
57441;SDS011;43284;47.042;15.498;2022-10-22T02:38:22;28.67;;;16.25;;
57441;SDS011;43284;47.042;15.498;2022-10-22T02:40:51;33.08;;;15.90;;
57441;SDS011;43284;47.042;15.498;2022-10-22T02:43:18;34.95;;;16.20;;
57441;SDS011;43284;47.042;15.498;2022-10-22T02:45:46;33.00;;;15.63;;
57441;SDS011;43284;47.042;15.498;2022-10-22T02:48:13;32.40;;;16.63;;
57441;SDS011;43284;47.042;15.498;2022-10-22T02:50:41;28.52;;;15.77;;
57441;SDS011;43284;47.042;15.498;2022-10-22T02:53:09;37.50;;;17.88;;
57441;SDS011;43284;47.042;15.498;2022-10-22T02:55:36;32.03;;;15.43;;
57441;SDS011;43284;47.042;15.498;2022-10-22T02:58:04;26.10;;;14.63;;
57441;SDS011;43284;47.042;15.498;2022-10-22T03:00:31;23.83;;;13.90;;
57441;SDS011;43284;47.042;15.498;2022-10-22T03:03:00;22.55;;;13.43;;
57441;SDS011;43284;47.042;15.498;2022-10-22T03:05:28;29.15;;;14.23;;
57441;SDS011;43284;47.042;15.498;2022-10-22T03:07:55;35.45;;;13.93;;
57441;SDS011;43284;47.042;15.498;2022-10-22T03:10:23;24.52;;;13.32;;
57441;SDS011;43284;47.042;15.498;2022-10-22T03:12:51;27.63;;;14.88;;
57441;SDS011;43284;47.042;15.498;2022-10-22T03:15:19;35.15;;;17.52;;
57441;SDS011;43284;47.042;15.498;2022-10-22T03:17:47;37.78;;;15.35;;
57441;SDS011;43284;47.042;15.498;2022-10-22T03:20:14;31.73;;;15.20;;
57441;SDS011;43284;47.042;15.498;2022-10-22T03:22:42;25.38;;;14.93;;
57441;SDS011;43284;47.042;15.498;2022-10-22T03:25:12;31.20;;;15.85;;
57441;SDS011;43284;47.042;15.498;2022-10-22T03:27:46;37.90;;;17.65;;
57441;SDS011;43284;47.042;15.498;2022-10-22T03:30:17;36.45;;;18.33;;
57441;SDS011;43284;47.042;15.498;2022-10-22T03:32:45;33.05;;;16.70;;
57441;SDS011;43284;47.042;15.498;2022-10-22T03:35:12;39.60;;;18.33;;
57441;SDS011;43284;47.042;15.498;2022-10-22T03:37:40;30.70;;;17.02;;
57441;SDS011;43284;47.042;15.498;2022-10-22T03:40:07;25.00;;;15.10;;
57441;SDS011;43284;47.042;15.498;2022-10-22T03:42:36;32.30;;;15.52;;
57441;SDS011;43284;47.042;15.498;2022-10-22T03:45:04;35.80;;;16.20;;
57441;SDS011;43284;47.042;15.498;2022-10-22T03:47:32;37.75;;;16.73;;
57441;SDS011;43284;47.042;15.498;2022-10-22T03:49:59;28.45;;;14.40;;
57441;SDS011;43284;47.042;15.498;2022-10-22T03:52:27;38.28;;;14.70;;
57441;SDS011;43284;47.042;15.498;2022-10-22T03:55:00;30.33;;;15.25;;
57441;SDS011;43284;47.042;15.498;2022-10-22T03:57:28;33.03;;;15.43;;
57441;SDS011;43284;47.042;15.498;2022-10-22T03:59:56;30.50;;;15.25;;
57441;SDS011;43284;47.042;15.498;2022-10-22T04:02:24;37.60;;;15.85;;
57441;SDS011;43284;47.042;15.498;2022-10-22T04:04:52;36.58;;;17.83;;
57441;SDS011;43284;47.042;15.498;2022-10-22T04:07:20;33.58;;;17.83;;
57441;SDS011;43284;47.042;15.498;2022-10-22T04:09:48;34.78;;;17.35;;
57441;SDS011;43284;47.042;15.498;2022-10-22T04:12:16;28.08;;;14.77;;
57441;SDS011;43284;47.042;15.498;2022-10-22T04:14:44;33.03;;;18.83;;
57441;SDS011;43284;47.042;15.498;2022-10-22T04:17:13;33.63;;;17.13;;
57441;SDS011;43284;47.042;15.498;2022-10-22T04:19:40;34.45;;;18.60;;
57441;SDS011;43284;47.042;15.498;2022-10-22T04:22:08;31.17;;;17.75;;
57441;SDS011;43284;47.042;15.498;2022-10-22T04:24:36;36.60;;;18.48;;
57441;SDS011;43284;47.042;15.498;2022-10-22T04:27:04;37.15;;;19.77;;
57441;SDS011;43284;47.042;15.498;2022-10-22T04:29:32;36.65;;;19.67;;
57441;SDS011;43284;47.042;15.498;2022-10-22T04:32:00;31.27;;;17.35;;
57441;SDS011;43284;47.042;15.498;2022-10-22T04:34:28;30.30;;;16.58;;
57441;SDS011;43284;47.042;15.498;2022-10-22T04:36:58;30.27;;;14.75;;
57441;SDS011;43284;47.042;15.498;2022-10-22T04:39:26;30.58;;;15.73;;
57441;SDS011;43284;47.042;15.498;2022-10-22T04:41:54;36.40;;;15.48;;
57441;SDS011;43284;47.042;15.498;2022-10-22T04:44:22;33.67;;;15.85;;
57441;SDS011;43284;47.042;15.498;2022-10-22T04:46:49;27.83;;;15.35;;
57441;SDS011;43284;47.042;15.498;2022-10-22T04:49:17;32.72;;;17.17;;
57441;SDS011;43284;47.042;15.498;2022-10-22T04:51:45;40.50;;;19.27;;
57441;SDS011;43284;47.042;15.498;2022-10-22T04:54:14;33.60;;;18.02;;
57441;SDS011;43284;47.042;15.498;2022-10-22T04:56:41;32.53;;;17.00;;
57441;SDS011;43284;47.042;15.498;2022-10-22T04:59:12;33.70;;;16.65;;
57441;SDS011;43284;47.042;15.498;2022-10-22T05:01:43;33.05;;;15.50;;
57441;SDS011;43284;47.042;15.498;2022-10-22T05:04:12;30.63;;;16.58;;
57441;SDS011;43284;47.042;15.498;2022-10-22T05:06:41;38.53;;;19.23;;
57441;SDS011;43284;47.042;15.498;2022-10-22T05:09:16;31.48;;;15.98;;
57441;SDS011;43284;47.042;15.498;2022-10-22T05:11:46;31.20;;;16.35;;
57441;SDS011;43284;47.042;15.498;2022-10-22T05:14:19;27.33;;;14.73;;
57441;SDS011;43284;47.042;15.498;2022-10-22T05:16:51;28.92;;;14.60;;
57441;SDS011;43284;47.042;15.498;2022-10-22T05:19:23;28.40;;;14.38;;
57441;SDS011;43284;47.042;15.498;2022-10-22T05:21:53;42.95;;;16.33;;
57441;SDS011;43284;47.042;15.498;2022-10-22T05:24:23;33.85;;;17.67;;
57441;SDS011;43284;47.042;15.498;2022-10-22T05:26:51;36.97;;;17.13;;
57441;SDS011;43284;47.042;15.498;2022-10-22T05:29:20;35.90;;;17.02;;
57441;SDS011;43284;47.042;15.498;2022-10-22T05:31:48;42.42;;;17.77;;
57441;SDS011;43284;47.042;15.498;2022-10-22T05:34:16;41.97;;;16.10;;
57441;SDS011;43284;47.042;15.498;2022-10-22T05:36:44;39.28;;;16.63;;
57441;SDS011;43284;47.042;15.498;2022-10-22T05:39:12;35.58;;;18.88;;
57441;SDS011;43284;47.042;15.498;2022-10-22T05:41:39;31.23;;;17.15;;
57441;SDS011;43284;47.042;15.498;2022-10-22T05:44:09;36.25;;;17.08;;
57441;SDS011;43284;47.042;15.498;2022-10-22T05:46:38;34.67;;;16.70;;
57441;SDS011;43284;47.042;15.498;2022-10-22T05:49:10;35.38;;;16.35;;
57441;SDS011;43284;47.042;15.498;2022-10-22T05:51:42;31.48;;;16.67;;
57441;SDS011;43284;47.042;15.498;2022-10-22T05:54:10;31.17;;;17.15;;
57441;SDS011;43284;47.042;15.498;2022-10-22T05:56:44;31.85;;;15.80;;
57441;SDS011;43284;47.042;15.498;2022-10-22T05:59:12;32.88;;;15.70;;
57441;SDS011;43284;47.042;15.498;2022-10-22T06:01:40;34.05;;;16.48;;
57441;SDS011;43284;47.042;15.498;2022-10-22T06:04:09;39.35;;;17.08;;
57441;SDS011;43284;47.042;15.498;2022-10-22T06:06:42;31.02;;;16.13;;
57441;SDS011;43284;47.042;15.498;2022-10-22T06:09:21;31.92;;;18.10;;
57441;SDS011;43284;47.042;15.498;2022-10-22T06:11:51;31.35;;;17.90;;
57441;SDS011;43284;47.042;15.498;2022-10-22T06:14:19;33.47;;;18.10;;
57441;SDS011;43284;47.042;15.498;2022-10-22T06:16:47;36.10;;;18.15;;
57441;SDS011;43284;47.042;15.498;2022-10-22T06:19:15;44.63;;;21.77;;
57441;SDS011;43284;47.042;15.498;2022-10-22T06:21:47;42.25;;;22.80;;
57441;SDS011;43284;47.042;15.498;2022-10-22T06:24:17;50.75;;;24.88;;
57441;SDS011;43284;47.042;15.498;2022-10-22T06:26:45;48.08;;;21.35;;
57441;SDS011;43284;47.042;15.498;2022-10-22T06:29:16;49.30;;;24.02;;
57441;SDS011;43284;47.042;15.498;2022-10-22T06:31:44;55.53;;;25.83;;
57441;SDS011;43284;47.042;15.498;2022-10-22T06:34:12;44.17;;;20.70;;
57441;SDS011;43284;47.042;15.498;2022-10-22T06:36:40;48.00;;;23.10;;
57441;SDS011;43284;47.042;15.498;2022-10-22T06:39:11;42.42;;;22.98;;
57441;SDS011;43284;47.042;15.498;2022-10-22T06:41:39;41.63;;;21.92;;
57441;SDS011;43284;47.042;15.498;2022-10-22T06:44:09;37.95;;;20.17;;
57441;SDS011;43284;47.042;15.498;2022-10-22T06:49:08;36.47;;;18.77;;
57441;SDS011;43284;47.042;15.498;2022-10-22T06:51:40;35.10;;;18.02;;
57441;SDS011;43284;47.042;15.498;2022-10-22T06:54:07;35.25;;;17.98;;
57441;SDS011;43284;47.042;15.498;2022-10-22T06:56:34;32.42;;;19.10;;
57441;SDS011;43284;47.042;15.498;2022-10-22T06:59:02;38.15;;;19.95;;
57441;SDS011;43284;47.042;15.498;2022-10-22T07:01:31;36.47;;;19.38;;
57441;SDS011;43284;47.042;15.498;2022-10-22T07:04:00;46.15;;;18.77;;
57441;SDS011;43284;47.042;15.498;2022-10-22T07:06:28;36.10;;;19.65;;
57441;SDS011;43284;47.042;15.498;2022-10-22T07:08:57;39.28;;;18.30;;
57441;SDS011;43284;47.042;15.498;2022-10-22T07:11:26;42.30;;;19.60;;
57441;SDS011;43284;47.042;15.498;2022-10-22T07:13:55;40.47;;;20.48;;
57441;SDS011;43284;47.042;15.498;2022-10-22T07:16:24;36.72;;;18.52;;
57441;SDS011;43284;47.042;15.498;2022-10-22T07:18:51;37.72;;;17.48;;
57441;SDS011;43284;47.042;15.498;2022-10-22T07:21:19;35.05;;;17.85;;
57441;SDS011;43284;47.042;15.498;2022-10-22T07:23:47;36.90;;;17.20;;
57441;SDS011;43284;47.042;15.498;2022-10-22T07:26:15;35.58;;;16.05;;
57441;SDS011;43284;47.042;15.498;2022-10-22T07:28:45;31.67;;;16.70;;
57441;SDS011;43284;47.042;15.498;2022-10-22T07:31:13;32.10;;;17.88;;
57441;SDS011;43284;47.042;15.498;2022-10-22T07:33:42;41.50;;;20.48;;
57441;SDS011;43284;47.042;15.498;2022-10-22T07:36:11;41.92;;;23.15;;
57441;SDS011;43284;47.042;15.498;2022-10-22T07:38:47;42.28;;;23.08;;
57441;SDS011;43284;47.042;15.498;2022-10-22T07:41:19;46.60;;;21.80;;
57441;SDS011;43284;47.042;15.498;2022-10-22T07:43:48;38.90;;;19.63;;
57441;SDS011;43284;47.042;15.498;2022-10-22T07:46:16;40.80;;;21.33;;
57441;SDS011;43284;47.042;15.498;2022-10-22T07:48:44;39.58;;;19.95;;
57441;SDS011;43284;47.042;15.498;2022-10-22T07:51:13;34.85;;;18.15;;
57441;SDS011;43284;47.042;15.498;2022-10-22T07:53:42;30.42;;;16.75;;
57441;SDS011;43284;47.042;15.498;2022-10-22T07:56:09;30.90;;;16.65;;
57441;SDS011;43284;47.042;15.498;2022-10-22T07:58:37;29.25;;;14.95;;
57441;SDS011;43284;47.042;15.498;2022-10-22T08:01:04;33.58;;;15.75;;
57441;SDS011;43284;47.042;15.498;2022-10-22T08:03:31;29.67;;;14.48;;
57441;SDS011;43284;47.042;15.498;2022-10-22T08:05:59;26.30;;;12.93;;
57441;SDS011;43284;47.042;15.498;2022-10-22T08:08:27;20.98;;;12.77;;
57441;SDS011;43284;47.042;15.498;2022-10-22T08:10:59;25.15;;;13.13;;
57441;SDS011;43284;47.042;15.498;2022-10-22T08:13:29;22.58;;;12.50;;
57441;SDS011;43284;47.042;15.498;2022-10-22T08:16:00;24.40;;;12.38;;
57441;SDS011;43284;47.042;15.498;2022-10-22T08:18:28;31.15;;;13.30;;
57441;SDS011;43284;47.042;15.498;2022-10-22T08:20:56;26.40;;;13.48;;
57441;SDS011;43284;47.042;15.498;2022-10-22T08:23:24;24.52;;;13.00;;
57441;SDS011;43284;47.042;15.498;2022-10-22T08:25:52;21.65;;;11.48;;
57441;SDS011;43284;47.042;15.498;2022-10-22T08:28:20;23.98;;;12.18;;
57441;SDS011;43284;47.042;15.498;2022-10-22T08:30:47;31.08;;;13.48;;
57441;SDS011;43284;47.042;15.498;2022-10-22T08:33:15;26.90;;;11.98;;
57441;SDS011;43284;47.042;15.498;2022-10-22T08:35:46;29.25;;;12.88;;
57441;SDS011;43284;47.042;15.498;2022-10-22T08:38:15;24.10;;;13.20;;
57441;SDS011;43284;47.042;15.498;2022-10-22T08:40:43;28.50;;;14.40;;
57441;SDS011;43284;47.042;15.498;2022-10-22T08:46:16;27.55;;;13.30;;
57441;SDS011;43284;47.042;15.498;2022-10-22T08:49:00;33.15;;;14.23;;
57441;SDS011;43284;47.042;15.498;2022-10-22T08:51:32;29.95;;;14.90;;
57441;SDS011;43284;47.042;15.498;2022-10-22T08:56:49;30.42;;;14.48;;
57441;SDS011;43284;47.042;15.498;2022-10-22T08:59:38;29.90;;;15.07;;
57441;SDS011;43284;47.042;15.498;2022-10-22T09:02:16;32.25;;;13.15;;
57441;SDS011;43284;47.042;15.498;2022-10-22T09:07:43;33.10;;;15.57;;
57441;SDS011;43284;47.042;15.498;2022-10-22T09:10:16;31.85;;;15.98;;
57441;SDS011;43284;47.042;15.498;2022-10-22T09:12:45;32.47;;;15.90;;
57441;SDS011;43284;47.042;15.498;2022-10-22T09:15:14;28.55;;;14.25;;
57441;SDS011;43284;47.042;15.498;2022-10-22T09:20:48;35.92;;;17.35;;
57441;SDS011;43284;47.042;15.498;2022-10-22T09:23:57;32.25;;;17.10;;
57441;SDS011;43284;47.042;15.498;2022-10-22T09:26:21;34.40;;;16.48;;
57441;SDS011;43284;47.042;15.498;2022-10-22T09:28:51;29.13;;;15.35;;
57441;SDS011;43284;47.042;15.498;2022-10-22T09:31:18;37.00;;;16.17;;
57441;SDS011;43284;47.042;15.498;2022-10-22T09:33:46;33.30;;;16.00;;
57441;SDS011;43284;47.042;15.498;2022-10-22T09:36:17;32.40;;;15.13;;
57441;SDS011;43284;47.042;15.498;2022-10-22T09:38:49;37.80;;;16.70;;
57441;SDS011;43284;47.042;15.498;2022-10-22T09:41:19;32.67;;;15.45;;
57441;SDS011;43284;47.042;15.498;2022-10-22T09:43:52;32.22;;;17.20;;
57441;SDS011;43284;47.042;15.498;2022-10-22T09:46:24;33.50;;;17.10;;
57441;SDS011;43284;47.042;15.498;2022-10-22T09:49:03;30.83;;;15.88;;
57441;SDS011;43284;47.042;15.498;2022-10-22T09:54:16;34.15;;;18.08;;
57441;SDS011;43284;47.042;15.498;2022-10-22T09:59:32;37.55;;;18.48;;
57441;SDS011;43284;47.042;15.498;2022-10-22T10:04:41;30.30;;;16.08;;
57441;SDS011;43284;47.042;15.498;2022-10-22T10:07:20;37.72;;;17.55;;
57441;SDS011;43284;47.042;15.498;2022-10-22T10:09:52;32.85;;;17.85;;
57441;SDS011;43284;47.042;15.498;2022-10-22T10:17:51;29.77;;;15.77;;
57441;SDS011;43284;47.042;15.498;2022-10-22T10:25:53;33.20;;;16.20;;
57441;SDS011;43284;47.042;15.498;2022-10-22T10:28:38;35.30;;;16.25;;
57441;SDS011;43284;47.042;15.498;2022-10-22T10:31:38;30.85;;;16.08;;
57441;SDS011;43284;47.042;15.498;2022-10-22T10:39:10;28.90;;;15.27;;
57441;SDS011;43284;47.042;15.498;2022-10-22T10:44:37;27.55;;;14.98;;
57441;SDS011;43284;47.042;15.498;2022-10-22T10:50:14;31.40;;;14.60;;
57441;SDS011;43284;47.042;15.498;2022-10-22T10:52:58;36.75;;;15.57;;
57441;SDS011;43284;47.042;15.498;2022-10-22T11:01:52;28.33;;;14.18;;
57441;SDS011;43284;47.042;15.498;2022-10-22T11:04:40;23.55;;;12.68;;
57441;SDS011;43284;47.042;15.498;2022-10-22T11:07:27;39.63;;;17.63;;
57441;SDS011;43284;47.042;15.498;2022-10-22T11:10:13;30.83;;;16.73;;
57441;SDS011;43284;47.042;15.498;2022-10-22T11:13:02;26.23;;;14.65;;
57441;SDS011;43284;47.042;15.498;2022-10-22T11:15:47;30.02;;;15.10;;
57441;SDS011;43284;47.042;15.498;2022-10-22T11:18:40;28.15;;;14.88;;
57441;SDS011;43284;47.042;15.498;2022-10-22T11:29:49;32.95;;;16.55;;
57441;SDS011;43284;47.042;15.498;2022-10-22T11:32:29;27.23;;;15.93;;
57441;SDS011;43284;47.042;15.498;2022-10-22T11:35:00;32.83;;;17.35;;
57441;SDS011;43284;47.042;15.498;2022-10-22T11:37:32;31.50;;;17.25;;
57441;SDS011;43284;47.042;15.498;2022-10-22T11:40:19;40.75;;;18.15;;
57441;SDS011;43284;47.042;15.498;2022-10-22T11:43:06;38.00;;;17.50;;
57441;SDS011;43284;47.042;15.498;2022-10-22T11:48:16;28.13;;;17.05;;
57441;SDS011;43284;47.042;15.498;2022-10-22T11:50:57;31.65;;;17.45;;
57441;SDS011;43284;47.042;15.498;2022-10-22T11:53:31;32.65;;;17.02;;
57441;SDS011;43284;47.042;15.498;2022-10-22T12:14:10;35.08;;;19.35;;
57441;SDS011;43284;47.042;15.498;2022-10-22T12:16:54;40.40;;;20.80;;
57441;SDS011;43284;47.042;15.498;2022-10-22T12:19:34;42.00;;;20.38;;
57441;SDS011;43284;47.042;15.498;2022-10-22T12:24:45;36.45;;;20.70;;
57441;SDS011;43284;47.042;15.498;2022-10-22T12:27:38;39.80;;;20.10;;
57441;SDS011;43284;47.042;15.498;2022-10-22T12:30:25;35.25;;;19.73;;
57441;SDS011;43284;47.042;15.498;2022-10-22T12:33:01;37.63;;;20.83;;
57441;SDS011;43284;47.042;15.498;2022-10-22T12:35:40;42.80;;;23.17;;
57441;SDS011;43284;47.042;15.498;2022-10-22T12:38:24;36.65;;;20.83;;
57441;SDS011;43284;47.042;15.498;2022-10-22T12:40:53;36.70;;;20.02;;
57441;SDS011;43284;47.042;15.498;2022-10-22T12:43:26;36.63;;;20.15;;
57441;SDS011;43284;47.042;15.498;2022-10-22T12:45:55;39.35;;;21.45;;
57441;SDS011;43284;47.042;15.498;2022-10-22T12:48:31;37.45;;;20.27;;
57441;SDS011;43284;47.042;15.498;2022-10-22T12:51:05;42.30;;;21.48;;
57441;SDS011;43284;47.042;15.498;2022-10-22T12:53:48;35.67;;;20.60;;
57441;SDS011;43284;47.042;15.498;2022-10-22T12:56:22;41.38;;;21.42;;
57441;SDS011;43284;47.042;15.498;2022-10-22T13:01:36;39.67;;;21.67;;
57441;SDS011;43284;47.042;15.498;2022-10-22T13:06:42;39.35;;;22.45;;
57441;SDS011;43284;47.042;15.498;2022-10-22T13:09:23;41.00;;;22.17;;
57441;SDS011;43284;47.042;15.498;2022-10-22T13:12:02;40.45;;;21.58;;
57441;SDS011;43284;47.042;15.498;2022-10-22T13:14:32;37.58;;;20.55;;
57441;SDS011;43284;47.042;15.498;2022-10-22T13:17:05;42.90;;;21.85;;
57441;SDS011;43284;47.042;15.498;2022-10-22T13:22:03;39.58;;;21.63;;
57441;SDS011;43284;47.042;15.498;2022-10-22T13:24:50;41.47;;;22.05;;
57441;SDS011;43284;47.042;15.498;2022-10-22T13:27:18;43.22;;;22.73;;
57441;SDS011;43284;47.042;15.498;2022-10-22T13:29:47;39.33;;;22.52;;
57441;SDS011;43284;47.042;15.498;2022-10-22T13:32:26;37.22;;;21.58;;
57441;SDS011;43284;47.042;15.498;2022-10-22T13:34:59;38.45;;;22.63;;
57441;SDS011;43284;47.042;15.498;2022-10-22T13:37:29;41.42;;;20.63;;
57441;SDS011;43284;47.042;15.498;2022-10-22T13:39:58;52.58;;;23.60;;
57441;SDS011;43284;47.042;15.498;2022-10-22T13:42:26;36.95;;;19.25;;
57441;SDS011;43284;47.042;15.498;2022-10-22T13:44:53;38.75;;;19.42;;
57441;SDS011;43284;47.042;15.498;2022-10-22T13:49:57;34.72;;;20.20;;
57441;SDS011;43284;47.042;15.498;2022-10-22T13:55:00;28.50;;;15.70;;
57441;SDS011;43284;47.042;15.498;2022-10-22T13:57:28;32.80;;;18.45;;
57441;SDS011;43284;47.042;15.498;2022-10-22T13:59:56;34.20;;;17.90;;
57441;SDS011;43284;47.042;15.498;2022-10-22T14:02:23;32.42;;;17.02;;
57441;SDS011;43284;47.042;15.498;2022-10-22T14:04:53;32.75;;;19.05;;
57441;SDS011;43284;47.042;15.498;2022-10-22T14:07:21;29.13;;;17.63;;
57441;SDS011;43284;47.042;15.498;2022-10-22T14:09:49;33.85;;;18.15;;
57441;SDS011;43284;47.042;15.498;2022-10-22T14:12:16;26.95;;;16.85;;
57441;SDS011;43284;47.042;15.498;2022-10-22T14:14:43;31.23;;;17.50;;
57441;SDS011;43284;47.042;15.498;2022-10-22T14:17:12;30.63;;;15.75;;
57441;SDS011;43284;47.042;15.498;2022-10-22T14:19:45;24.95;;;13.93;;
57441;SDS011;43284;47.042;15.498;2022-10-22T14:22:17;28.90;;;15.73;;
57441;SDS011;43284;47.042;15.498;2022-10-22T14:24:45;32.45;;;15.55;;
57441;SDS011;43284;47.042;15.498;2022-10-22T14:27:13;27.77;;;15.07;;
57441;SDS011;43284;47.042;15.498;2022-10-22T14:29:41;25.33;;;13.70;;
57441;SDS011;43284;47.042;15.498;2022-10-22T14:32:12;28.20;;;14.05;;
57441;SDS011;43284;47.042;15.498;2022-10-22T14:34:42;31.17;;;15.68;;
57441;SDS011;43284;47.042;15.498;2022-10-22T14:37:15;26.77;;;14.68;;
57441;SDS011;43284;47.042;15.498;2022-10-22T14:39:45;35.90;;;17.73;;
57441;SDS011;43284;47.042;15.498;2022-10-22T14:42:18;27.55;;;16.17;;
57441;SDS011;43284;47.042;15.498;2022-10-22T14:44:45;34.78;;;17.70;;
57441;SDS011;43284;47.042;15.498;2022-10-22T14:47:12;37.67;;;19.30;;
57441;SDS011;43284;47.042;15.498;2022-10-22T14:49:40;51.78;;;23.90;;
57441;SDS011;43284;47.042;15.498;2022-10-22T14:52:07;39.65;;;23.52;;
57441;SDS011;43284;47.042;15.498;2022-10-22T14:54:35;39.88;;;21.30;;
57441;SDS011;43284;47.042;15.498;2022-10-22T14:57:02;35.25;;;19.75;;
57441;SDS011;43284;47.042;15.498;2022-10-22T14:59:30;46.25;;;24.17;;
57441;SDS011;43284;47.042;15.498;2022-10-22T15:01:57;55.38;;;26.92;;
57441;SDS011;43284;47.042;15.498;2022-10-22T15:04:25;54.83;;;26.50;;
57441;SDS011;43284;47.042;15.498;2022-10-22T15:06:53;48.25;;;25.90;;
57441;SDS011;43284;47.042;15.498;2022-10-22T15:09:22;59.60;;;29.27;;
57441;SDS011;43284;47.042;15.498;2022-10-22T15:11:49;56.85;;;28.02;;
57441;SDS011;43284;47.042;15.498;2022-10-22T15:14:17;45.90;;;24.58;;
57441;SDS011;43284;47.042;15.498;2022-10-22T15:16:44;41.75;;;21.38;;
57441;SDS011;43284;47.042;15.498;2022-10-22T15:19:12;45.15;;;24.58;;
57441;SDS011;43284;47.042;15.498;2022-10-22T15:21:40;48.30;;;26.52;;
57441;SDS011;43284;47.042;15.498;2022-10-22T15:24:07;48.00;;;25.38;;
57441;SDS011;43284;47.042;15.498;2022-10-22T15:26:35;50.40;;;27.05;;
57441;SDS011;43284;47.042;15.498;2022-10-22T15:29:03;50.17;;;26.92;;
57441;SDS011;43284;47.042;15.498;2022-10-22T15:31:41;50.92;;;27.65;;
57441;SDS011;43284;47.042;15.498;2022-10-22T15:34:18;55.05;;;28.60;;
57441;SDS011;43284;47.042;15.498;2022-10-22T15:36:48;64.10;;;29.35;;
57441;SDS011;43284;47.042;15.498;2022-10-22T15:39:15;64.57;;;33.67;;
57441;SDS011;43284;47.042;15.498;2022-10-22T15:41:44;106.70;;;33.55;;
57441;SDS011;43284;47.042;15.498;2022-10-22T15:44:16;68.13;;;30.90;;
57441;SDS011;43284;47.042;15.498;2022-10-22T15:46:45;69.35;;;34.00;;
57441;SDS011;43284;47.042;15.498;2022-10-22T15:49:13;73.40;;;31.88;;
57441;SDS011;43284;47.042;15.498;2022-10-22T15:51:40;75.20;;;31.65;;
57441;SDS011;43284;47.042;15.498;2022-10-22T15:54:11;57.13;;;29.45;;
57441;SDS011;43284;47.042;15.498;2022-10-22T15:56:41;53.17;;;28.17;;
57441;SDS011;43284;47.042;15.498;2022-10-22T15:59:10;55.60;;;25.95;;
57441;SDS011;43284;47.042;15.498;2022-10-22T16:01:39;43.80;;;24.10;;
57441;SDS011;43284;47.042;15.498;2022-10-22T16:04:07;40.95;;;23.92;;
57441;SDS011;43284;47.042;15.498;2022-10-22T16:06:36;45.97;;;25.60;;
57441;SDS011;43284;47.042;15.498;2022-10-22T16:09:07;47.90;;;24.77;;
57441;SDS011;43284;47.042;15.498;2022-10-22T16:11:36;40.22;;;23.20;;
57441;SDS011;43284;47.042;15.498;2022-10-22T16:14:05;41.55;;;23.42;;
57441;SDS011;43284;47.042;15.498;2022-10-22T16:16:34;48.53;;;24.23;;
57441;SDS011;43284;47.042;15.498;2022-10-22T16:19:01;40.30;;;23.67;;
57441;SDS011;43284;47.042;15.498;2022-10-22T16:21:29;43.78;;;23.65;;
57441;SDS011;43284;47.042;15.498;2022-10-22T16:23:58;37.72;;;21.52;;
57441;SDS011;43284;47.042;15.498;2022-10-22T16:26:26;38.28;;;20.65;;
57441;SDS011;43284;47.042;15.498;2022-10-22T16:28:54;40.53;;;20.98;;
57441;SDS011;43284;47.042;15.498;2022-10-22T16:31:23;45.67;;;20.23;;